createdAt,value
2022-08-17T00:00:44.164Z,21.23
2022-08-17T00:03:15.018Z,21.20
2022-08-17T00:05:45.403Z,21.19
2022-08-17T00:08:14.221Z,21.16
2022-08-17T00:10:45.562Z,21.11
2022-08-17T00:13:16.634Z,21.08
2022-08-17T00:15:44.958Z,21.00
2022-08-17T00:19:01.182Z,20.96
2022-08-17T00:21:02.467Z,20.93
2022-08-17T00:23:31.528Z,20.91
2022-08-17T00:26:00.840Z,20.88
2022-08-17T00:28:29.146Z,20.89
2022-08-17T00:31:06.979Z,20.91
2022-08-17T00:33:35.527Z,20.89
2022-08-17T00:36:05.873Z,20.88
2022-08-17T00:38:34.251Z,20.86
2022-08-17T00:41:07.674Z,20.84
2022-08-17T00:43:39.521Z,20.87
2022-08-17T00:46:10.754Z,20.84
2022-08-17T00:48:39.389Z,20.84
2022-08-17T00:51:12.980Z,20.84
2022-08-17T00:53:45.539Z,20.82
2022-08-17T00:56:18.236Z,20.86
2022-08-17T00:58:46.226Z,20.87
2022-08-17T01:01:21.381Z,20.80
2022-08-17T01:03:55.592Z,20.76
2022-08-17T01:06:32.959Z,20.71
2022-08-17T01:09:03.375Z,20.66
2022-08-17T01:11:35.305Z,20.61
2022-08-17T01:14:03.279Z,20.54
2022-08-17T01:16:32.865Z,20.55
2022-08-17T01:19:06.248Z,20.51
2022-08-17T01:21:41.225Z,20.48
2022-08-17T01:24:10.787Z,20.45
2022-08-17T01:26:40.420Z,20.41
2022-08-17T01:29:08.608Z,20.41
2022-08-17T01:31:44.407Z,20.39
2022-08-17T01:34:13.799Z,20.38
2022-08-17T01:36:45.820Z,20.38
2022-08-17T01:39:24.336Z,20.35
2022-08-17T01:41:57.322Z,20.37
2022-08-17T01:44:27.795Z,20.38
2022-08-17T01:46:55.879Z,20.40
2022-08-17T01:49:24.078Z,20.38
2022-08-17T01:51:52.311Z,20.40
2022-08-17T01:54:23.109Z,20.42
2022-08-17T01:56:52.788Z,20.44
2022-08-17T01:59:21.314Z,20.41
2022-08-17T02:01:49.477Z,20.41
2022-08-17T02:04:17.498Z,20.40
2022-08-17T02:06:53.225Z,20.38
2022-08-17T02:09:26.208Z,20.37
2022-08-17T02:11:59.531Z,20.37
2022-08-17T02:14:27.747Z,20.40
2022-08-17T02:16:58.716Z,20.41
2022-08-17T02:19:26.830Z,20.43
2022-08-17T02:21:55.411Z,20.33
2022-08-17T02:25:00.688Z,20.25
2022-08-17T02:27:17.138Z,20.25
2022-08-17T02:29:45.046Z,20.24
2022-08-17T02:32:27.709Z,20.19
2022-08-17T02:34:57.031Z,20.22
2022-08-17T02:37:25.487Z,20.20
2022-08-17T02:39:58.540Z,20.18
2022-08-17T02:42:30.070Z,20.10
2022-08-17T02:44:58.269Z,20.02
2022-08-17T02:47:26.831Z,19.98
2022-08-17T02:49:56.074Z,19.96
2022-08-17T02:52:43.055Z,19.92
2022-08-17T02:55:17.922Z,19.91
2022-08-17T02:57:46.405Z,19.89
2022-08-17T03:00:18.008Z,19.94
2022-08-17T03:02:46.467Z,19.89
2022-08-17T03:05:16.769Z,19.85
2022-08-17T03:07:44.979Z,19.78
2022-08-17T03:10:14.747Z,19.66
2022-08-17T03:12:46.149Z,19.65
2022-08-17T03:15:16.713Z,19.66
2022-08-17T03:17:45.563Z,19.66
2022-08-17T03:20:16.066Z,19.71
2022-08-17T03:22:47.953Z,19.68
2022-08-17T03:25:25.165Z,19.61
2022-08-17T03:27:53.785Z,19.61
2022-08-17T03:30:22.540Z,19.62
2022-08-17T03:32:53.279Z,19.60
2022-08-17T03:35:27.222Z,19.58
2022-08-17T03:38:00.173Z,19.55
2022-08-17T03:40:55.241Z,19.57
2022-08-17T03:43:21.286Z,19.54
2022-08-17T03:46:11.091Z,19.48
2022-08-17T03:49:13.358Z,19.52
2022-08-17T03:52:00.981Z,19.52
2022-08-17T03:54:46.626Z,19.50
2022-08-17T03:57:19.134Z,19.48
2022-08-17T03:59:47.678Z,19.52
2022-08-17T04:02:20.018Z,19.47
2022-08-17T04:04:50.815Z,19.45
2022-08-17T04:07:19.692Z,19.45
2022-08-17T04:09:50.596Z,19.45
2022-08-17T04:12:23.918Z,19.43
2022-08-17T04:14:54.679Z,19.43
2022-08-17T04:17:26.138Z,19.40
2022-08-17T04:19:55.659Z,19.41
2022-08-17T04:22:30.249Z,19.39
2022-08-17T04:24:59.948Z,19.38
2022-08-17T04:27:29.269Z,19.40
2022-08-17T04:29:58.658Z,19.39
2022-08-17T04:33:10.466Z,19.40
2022-08-17T04:35:19.568Z,19.41
2022-08-17T04:37:47.555Z,19.44
2022-08-17T04:40:33.485Z,19.41
2022-08-17T04:43:05.581Z,19.46
2022-08-17T04:45:33.685Z,19.52
2022-08-17T04:48:01.784Z,19.55
2022-08-17T04:50:30.016Z,19.57
2022-08-17T04:53:01.334Z,19.61
2022-08-17T04:55:29.700Z,19.62
2022-08-17T04:57:57.781Z,19.64
2022-08-17T05:00:27.390Z,19.63
2022-08-17T05:02:57.207Z,19.64
2022-08-17T05:05:29.304Z,19.67
2022-08-17T05:08:01.332Z,19.70
2022-08-17T05:10:31.763Z,19.69
2022-08-17T05:13:00.781Z,19.70
2022-08-17T05:15:33.225Z,19.74
2022-08-17T05:18:04.400Z,19.82
2022-08-17T05:20:32.810Z,19.78
2022-08-17T05:23:04.545Z,19.76
2022-08-17T05:25:38.004Z,19.79
2022-08-17T05:28:08.132Z,19.82
2022-08-17T05:30:38.823Z,19.85
2022-08-17T05:33:09.106Z,19.85
2022-08-17T05:35:39.845Z,19.93
2022-08-17T05:38:08.340Z,19.95
2022-08-17T05:40:37.003Z,19.95
2022-08-17T05:43:07.380Z,20.03
2022-08-17T05:45:55.419Z,20.18
2022-08-17T05:48:35.562Z,20.36
2022-08-17T05:51:29.125Z,20.66
2022-08-17T05:54:08.452Z,20.87
2022-08-17T05:56:52.769Z,21.06
2022-08-17T05:59:30.408Z,21.26
2022-08-17T06:02:06.834Z,21.38
2022-08-17T06:05:01.658Z,21.42
2022-08-17T06:07:38.010Z,21.52
2022-08-17T06:10:14.757Z,21.69
2022-08-17T06:12:55.843Z,21.79
2022-08-17T06:15:34.089Z,21.84
2022-08-17T06:18:08.897Z,21.93
2022-08-17T06:20:44.785Z,22.01
2022-08-17T06:23:22.442Z,22.11
2022-08-17T06:25:57.206Z,22.22
2022-08-17T06:28:31.978Z,22.36
2022-08-17T06:31:06.880Z,22.49
2022-08-17T06:33:40.148Z,22.62
2022-08-17T06:36:29.252Z,22.66
2022-08-17T06:39:11.168Z,22.74
2022-08-17T06:41:52.037Z,22.80
2022-08-17T06:44:43.452Z,22.75
2022-08-17T06:47:28.609Z,22.85
2022-08-17T06:50:09.701Z,22.87
2022-08-17T06:52:47.498Z,22.91
2022-08-17T06:55:21.214Z,22.94
2022-08-17T06:57:52.654Z,23.00
2022-08-17T07:00:23.836Z,23.05
2022-08-17T07:02:58.360Z,23.12
2022-08-17T07:05:33.729Z,23.21
2022-08-17T07:08:11.611Z,23.29
2022-08-17T07:10:44.281Z,23.46
2022-08-17T07:13:25.482Z,23.49
2022-08-17T07:16:03.261Z,23.58
2022-08-17T07:18:33.159Z,23.70
2022-08-17T07:21:14.168Z,23.79
2022-08-17T07:24:01.939Z,23.85
2022-08-17T07:26:30.332Z,23.92
2022-08-17T07:29:00.359Z,24.06
2022-08-17T07:31:33.402Z,24.38
2022-08-17T07:34:08.637Z,24.33
2022-08-17T07:36:38.308Z,24.45
2022-08-17T07:39:06.426Z,24.52
2022-08-17T07:41:53.243Z,24.57
2022-08-17T07:44:25.403Z,24.64
2022-08-17T07:47:24.136Z,24.71
2022-08-17T07:49:52.187Z,24.81
2022-08-17T07:52:50.896Z,24.93
2022-08-17T07:55:29.488Z,24.94
2022-08-17T07:58:00.598Z,24.99
2022-08-17T08:00:32.325Z,25.09
2022-08-17T08:03:12.336Z,25.12
2022-08-17T08:05:51.100Z,25.08
2022-08-17T08:08:28.107Z,25.07
2022-08-17T08:11:03.035Z,25.08
2022-08-17T08:13:32.116Z,25.06
2022-08-17T08:16:21.475Z,25.04
2022-08-17T08:18:57.388Z,24.97
2022-08-17T08:21:36.430Z,24.95
2022-08-17T08:24:33.916Z,24.93
2022-08-17T08:27:11.880Z,24.96
2022-08-17T08:29:46.651Z,25.01
2022-08-17T08:32:20.886Z,25.03
2022-08-17T08:35:02.519Z,25.06
2022-08-17T08:37:46.583Z,25.14
2022-08-17T08:40:34.839Z,25.17
2022-08-17T08:43:17.793Z,25.20
2022-08-17T08:45:56.580Z,25.16
2022-08-17T08:48:53.678Z,25.16
2022-08-17T08:51:40.817Z,25.17
2022-08-17T08:54:27.000Z,25.22
2022-08-17T08:57:29.058Z,25.27
2022-08-17T09:00:04.007Z,25.33
2022-08-17T09:02:51.862Z,25.42
2022-08-17T09:05:33.515Z,25.45
2022-08-17T09:08:13.945Z,25.47
2022-08-17T09:10:54.380Z,25.49
2022-08-17T09:13:29.508Z,25.52
2022-08-17T09:16:01.020Z,25.67
2022-08-17T09:19:02.281Z,25.69
2022-08-17T09:21:33.633Z,25.86
2022-08-17T09:24:11.162Z,25.95
2022-08-17T09:26:46.347Z,26.01
2022-08-17T09:29:18.685Z,25.99
2022-08-17T09:31:52.581Z,25.94
2022-08-17T09:34:33.094Z,25.96
2022-08-17T09:37:17.779Z,26.09
2022-08-17T09:39:52.669Z,26.22
2022-08-17T09:42:27.689Z,26.31
2022-08-17T09:45:08.729Z,26.34
2022-08-17T09:47:46.521Z,26.35
2022-08-17T09:50:20.166Z,26.33
2022-08-17T09:53:09.102Z,26.30
2022-08-17T09:55:53.310Z,26.32
2022-08-17T09:58:30.941Z,26.40
2022-08-17T10:01:07.796Z,26.50
2022-08-17T10:04:07.451Z,26.63
2022-08-17T10:06:44.082Z,26.82
2022-08-17T10:09:19.499Z,26.96
2022-08-17T10:12:11.384Z,27.11
2022-08-17T10:14:53.476Z,27.29
2022-08-17T10:17:31.100Z,27.42
2022-08-17T10:20:04.972Z,27.54
2022-08-17T10:22:58.421Z,27.65
2022-08-17T10:25:55.004Z,27.80
2022-08-17T10:28:29.590Z,27.94
2022-08-17T10:31:31.004Z,28.05
2022-08-17T10:34:02.869Z,28.19
2022-08-17T10:36:43.171Z,28.38
2022-08-17T10:39:21.641Z,28.45
2022-08-17T10:41:53.925Z,28.54
2022-08-17T10:44:40.425Z,28.60
2022-08-17T10:47:12.696Z,28.61
2022-08-17T10:49:49.628Z,28.59
2022-08-17T10:52:51.323Z,28.63
2022-08-17T10:55:21.167Z,28.69
2022-08-17T10:57:51.106Z,28.88
2022-08-17T11:01:12.666Z,29.09
2022-08-17T11:03:54.046Z,29.25
2022-08-17T11:06:43.143Z,29.30
2022-08-17T11:09:45.743Z,29.23
2022-08-17T11:12:25.525Z,29.14
2022-08-17T11:15:06.789Z,29.06
2022-08-17T11:17:54.538Z,29.01
2022-08-17T11:21:06.031Z,28.93
2022-08-17T11:23:59.971Z,28.87
2022-08-17T11:26:30.514Z,28.73
2022-08-17T11:29:03.784Z,28.59
2022-08-17T11:31:39.722Z,28.54
2022-08-17T11:34:19.496Z,28.51
2022-08-17T11:37:01.714Z,28.53
2022-08-17T11:40:05.602Z,28.54
2022-08-17T11:43:07.527Z,28.61
2022-08-17T11:45:53.168Z,28.69
2022-08-17T11:48:50.643Z,28.74
2022-08-17T11:51:43.613Z,28.98
2022-08-17T11:54:40.285Z,29.29
2022-08-17T11:57:53.828Z,29.50
2022-08-17T12:00:49.707Z,29.59
2022-08-17T12:03:24.878Z,29.62
2022-08-17T12:06:03.460Z,29.58
2022-08-17T12:08:35.293Z,29.50
2022-08-17T12:11:08.035Z,29.49
2022-08-17T12:13:46.622Z,29.42
2022-08-17T12:16:18.509Z,29.30
2022-08-17T12:18:51.380Z,29.16
2022-08-17T12:21:46.166Z,29.06
2022-08-17T12:24:24.422Z,29.02
2022-08-17T12:26:54.977Z,29.10
2022-08-17T12:29:38.338Z,29.19
2022-08-17T12:32:17.670Z,29.42
2022-08-17T12:34:47.534Z,29.62
2022-08-17T12:37:18.543Z,30.02
2022-08-17T12:39:56.895Z,30.28
2022-08-17T12:42:29.325Z,30.36
2022-08-17T12:44:57.784Z,30.38
2022-08-17T12:47:30.037Z,30.38
2022-08-17T12:50:08.446Z,30.57
2022-08-17T12:53:01.722Z,30.76
2022-08-17T12:55:38.752Z,30.97
2022-08-17T12:58:14.407Z,31.20
2022-08-17T13:00:50.249Z,31.61
2022-08-17T13:03:25.882Z,31.72
2022-08-17T13:05:59.163Z,31.33
2022-08-17T13:08:36.016Z,31.09
2022-08-17T13:11:08.415Z,31.11
2022-08-17T13:13:39.411Z,31.08
2022-08-17T13:16:16.640Z,31.09
2022-08-17T13:18:48.818Z,31.15
2022-08-17T13:21:30.529Z,31.55
2022-08-17T13:24:01.421Z,31.82
2022-08-17T13:26:34.413Z,32.15
2022-08-17T13:29:06.419Z,32.39
2022-08-17T13:31:42.918Z,32.43
2022-08-17T13:34:49.610Z,32.28
2022-08-17T13:37:32.649Z,31.95
2022-08-17T13:40:29.299Z,31.71
2022-08-17T13:42:59.159Z,31.58
2022-08-17T13:45:50.671Z,31.73
2022-08-17T13:48:28.362Z,31.85
2022-08-17T13:51:25.337Z,31.88
2022-08-17T13:54:03.789Z,31.84
2022-08-17T13:56:39.520Z,31.89
2022-08-17T13:59:12.322Z,32.04
2022-08-17T14:01:44.037Z,32.40
2022-08-17T14:04:14.144Z,32.74
2022-08-17T14:06:52.005Z,32.75
2022-08-17T14:09:25.524Z,32.89
2022-08-17T14:11:55.021Z,33.15
2022-08-17T14:14:26.093Z,33.52
2022-08-17T14:16:55.040Z,33.87
2022-08-17T14:19:23.313Z,33.93
2022-08-17T14:21:56.418Z,34.03
2022-08-17T14:24:27.382Z,34.25
2022-08-17T14:26:56.135Z,34.21
2022-08-17T14:29:26.379Z,33.98
2022-08-17T14:31:54.931Z,33.66
2022-08-17T14:34:23.890Z,33.41
2022-08-17T14:36:53.707Z,33.11
2022-08-17T14:39:21.743Z,33.09
2022-08-17T14:41:53.011Z,33.02
2022-08-17T14:44:23.225Z,33.16
2022-08-17T14:46:53.658Z,33.48
2022-08-17T14:49:21.660Z,33.74
2022-08-17T14:51:53.885Z,33.79
2022-08-17T14:54:32.939Z,33.99
2022-08-17T14:57:22.811Z,34.20
2022-08-17T14:59:52.291Z,34.40
2022-08-17T15:02:29.314Z,34.65
2022-08-17T15:05:01.923Z,34.65
2022-08-17T15:07:31.955Z,34.70
2022-08-17T15:10:01.607Z,35.01
2022-08-17T15:12:34.311Z,35.18
2022-08-17T15:15:04.655Z,35.40
2022-08-17T15:17:55.072Z,35.87
2022-08-17T15:20:25.146Z,36.07
2022-08-17T15:22:57.018Z,36.18
2022-08-17T15:25:27.430Z,36.00
2022-08-17T15:27:55.955Z,36.28
2022-08-17T15:30:25.743Z,36.51
2022-08-17T15:32:55.457Z,36.76
2022-08-17T15:35:28.369Z,36.45
2022-08-17T15:38:07.835Z,35.77
2022-08-17T15:40:39.911Z,35.59
2022-08-17T15:43:11.201Z,35.80
2022-08-17T15:45:39.957Z,36.44
2022-08-17T15:48:08.842Z,36.55
2022-08-17T15:50:37.337Z,36.81
2022-08-17T15:53:06.631Z,37.02
2022-08-17T15:55:36.533Z,37.42
2022-08-17T15:58:05.451Z,38.04
2022-08-17T16:00:43.524Z,38.55
2022-08-17T16:04:01.171Z,38.70
2022-08-17T16:06:12.232Z,39.14
2022-08-17T16:08:43.782Z,39.57
2022-08-17T16:11:12.737Z,39.74
2022-08-17T16:13:41.576Z,40.14
2022-08-17T16:16:09.985Z,40.66
2022-08-17T16:18:39.044Z,41.47
2022-08-17T16:21:26.960Z,42.07
2022-08-17T16:23:59.452Z,42.02
2022-08-17T16:26:29.174Z,41.37
2022-08-17T16:28:58.668Z,40.65
2022-08-17T16:31:26.848Z,40.36
2022-08-17T16:34:15.587Z,39.91
2022-08-17T16:36:53.575Z,39.30
2022-08-17T16:39:27.494Z,39.02
2022-08-17T16:41:56.439Z,38.45
2022-08-17T16:44:25.689Z,37.94
2022-08-17T16:46:53.967Z,37.26
2022-08-17T16:49:36.799Z,36.78
2022-08-17T16:52:09.852Z,36.42
2022-08-17T16:54:43.293Z,35.41
2022-08-17T16:57:11.564Z,35.01
2022-08-17T16:59:42.570Z,34.62
2022-08-17T17:02:16.970Z,34.35
2022-08-17T17:04:51.999Z,34.10
2022-08-17T17:07:34.755Z,34.10
2022-08-17T17:10:08.834Z,33.65
2022-08-17T17:13:02.807Z,33.38
2022-08-17T17:15:46.298Z,33.01
2022-08-17T17:18:15.391Z,32.88
2022-08-17T17:20:50.719Z,32.59
2022-08-17T17:23:34.812Z,32.41
2022-08-17T17:26:24.559Z,32.31
2022-08-17T17:29:11.416Z,32.35
2022-08-17T17:31:51.393Z,32.24
2022-08-17T17:34:21.183Z,32.11
2022-08-17T17:36:52.923Z,32.00
2022-08-17T17:39:33.526Z,31.77
2022-08-17T17:42:07.571Z,31.56
2022-08-17T17:44:40.755Z,31.35
2022-08-17T17:47:09.849Z,31.23
2022-08-17T17:49:46.183Z,31.06
2022-08-17T17:52:22.264Z,30.90
2022-08-17T17:55:01.818Z,30.67
2022-08-17T17:57:44.900Z,30.49
2022-08-17T18:00:18.000Z,30.39
2022-08-17T18:02:56.878Z,30.23
2022-08-17T18:05:49.690Z,30.12
2022-08-17T18:08:34.681Z,30.02
2022-08-17T18:11:24.481Z,29.94
2022-08-17T18:14:14.705Z,29.82
2022-08-17T18:16:43.848Z,29.70
2022-08-17T18:19:13.932Z,29.61
2022-08-17T18:21:46.876Z,29.49
2022-08-17T18:24:15.002Z,29.32
2022-08-17T18:26:48.514Z,29.16
2022-08-17T18:29:31.092Z,28.95
2022-08-17T18:32:28.918Z,28.79
2022-08-17T18:35:03.268Z,28.60
2022-08-17T18:37:44.849Z,28.46
2022-08-17T18:40:31.137Z,28.32
2022-08-17T18:43:11.293Z,28.18
2022-08-17T18:45:45.644Z,28.06
2022-08-17T18:48:27.300Z,27.93
2022-08-17T18:50:57.812Z,27.80
2022-08-17T18:53:34.621Z,27.68
2022-08-17T18:56:26.850Z,27.54
2022-08-17T18:59:03.766Z,27.40
2022-08-17T19:01:54.647Z,27.27
2022-08-17T19:04:34.607Z,27.13
2022-08-17T19:07:09.377Z,27.02
2022-08-17T19:09:42.914Z,26.92
2022-08-17T19:12:27.208Z,26.78
2022-08-17T19:14:56.987Z,26.69
2022-08-17T19:17:40.846Z,26.60
2022-08-17T19:20:17.138Z,26.49
2022-08-17T19:22:55.034Z,26.36
2022-08-17T19:25:28.282Z,26.24
2022-08-17T19:28:01.654Z,26.16
2022-08-17T19:30:31.800Z,26.08
2022-08-17T19:33:03.143Z,26.01
2022-08-17T19:35:43.550Z,25.95
2022-08-17T19:38:24.925Z,25.92
2022-08-17T19:41:03.956Z,25.87
2022-08-17T19:43:57.234Z,25.83
2022-08-17T19:46:36.221Z,25.76
2022-08-17T19:49:33.197Z,25.69
2022-08-17T19:52:24.084Z,25.60
2022-08-17T19:54:59.365Z,25.52
2022-08-17T19:57:40.482Z,25.48
2022-08-17T20:00:13.007Z,25.44
2022-08-17T20:02:49.050Z,25.39
2022-08-17T20:05:22.438Z,25.38
2022-08-17T20:07:57.596Z,25.33
2022-08-17T20:10:36.429Z,25.31
2022-08-17T20:13:09.192Z,25.23
2022-08-17T20:15:40.486Z,25.18
2022-08-17T20:18:15.076Z,25.15
2022-08-17T20:20:54.696Z,25.06
2022-08-17T20:23:32.536Z,24.98
2022-08-17T20:26:09.106Z,24.91
2022-08-17T20:28:39.783Z,24.83
2022-08-17T20:31:37.456Z,24.77
2022-08-17T20:34:37.162Z,24.70
2022-08-17T20:37:09.438Z,24.63
2022-08-17T20:39:42.211Z,24.57
2022-08-17T20:42:28.897Z,24.50
2022-08-17T20:44:59.142Z,24.44
2022-08-17T20:47:30.036Z,24.38
2022-08-17T20:50:03.019Z,24.26
2022-08-17T20:52:50.721Z,24.21
2022-08-17T20:55:55.534Z,24.16
2022-08-17T20:58:49.678Z,24.05
2022-08-17T21:01:36.743Z,24.02
2022-08-17T21:04:09.155Z,23.94
2022-08-17T21:07:17.419Z,23.88
2022-08-17T21:09:47.501Z,23.83
2022-08-17T21:12:43.074Z,23.82
2022-08-17T21:15:29.418Z,23.77
2022-08-17T21:18:07.443Z,23.73
2022-08-17T21:20:49.284Z,23.68
2022-08-17T21:23:34.057Z,23.58
2022-08-17T21:26:30.660Z,23.51
2022-08-17T21:29:17.913Z,23.48
2022-08-17T21:32:19.294Z,23.39
2022-08-17T21:35:24.591Z,23.38
2022-08-17T21:37:56.567Z,23.38
2022-08-17T21:40:28.281Z,23.36
2022-08-17T21:43:01.549Z,23.32
2022-08-17T21:45:35.041Z,23.24
2022-08-17T21:48:13.406Z,23.16
2022-08-17T21:50:45.296Z,23.17
2022-08-17T21:53:30.686Z,23.18
2022-08-17T21:56:01.299Z,23.19
2022-08-17T21:58:33.510Z,23.21
2022-08-17T22:01:20.940Z,23.21
2022-08-17T22:03:57.501Z,23.23
2022-08-17T22:06:28.625Z,23.22
2022-08-17T22:09:06.608Z,23.21
2022-08-17T22:11:52.691Z,23.23
2022-08-17T22:14:25.498Z,23.19
2022-08-17T22:17:18.962Z,23.17
2022-08-17T22:19:51.349Z,23.15
2022-08-17T22:22:27.373Z,23.15
2022-08-17T22:24:57.779Z,23.15
2022-08-17T22:27:49.726Z,23.17
2022-08-17T22:30:28.131Z,23.15
2022-08-17T22:32:57.645Z,23.14
2022-08-17T22:35:34.290Z,23.14
2022-08-17T22:38:27.473Z,23.13
2022-08-17T22:40:58.686Z,23.08
2022-08-17T22:43:29.755Z,22.99
2022-08-17T22:46:01.935Z,22.96
2022-08-17T22:48:31.129Z,22.96
2022-08-17T22:51:13.821Z,22.95
2022-08-17T22:54:05.937Z,22.83
2022-08-17T22:56:51.852Z,22.75
2022-08-17T22:59:39.495Z,22.74
2022-08-17T23:02:25.121Z,22.72
2022-08-17T23:04:55.577Z,22.73
2022-08-17T23:07:23.815Z,22.67
2022-08-17T23:09:53.724Z,22.67
2022-08-17T23:12:27.045Z,22.70
2022-08-17T23:15:01.489Z,22.67
2022-08-17T23:17:36.899Z,22.65
2022-08-17T23:20:08.259Z,22.65
2022-08-17T23:22:38.219Z,22.67
2022-08-17T23:25:27.819Z,22.67
2022-08-17T23:27:57.531Z,22.64
2022-08-17T23:30:27.325Z,22.63
2022-08-17T23:32:59.367Z,22.63
2022-08-17T23:35:40.201Z,22.61
2022-08-17T23:38:10.395Z,22.62
2022-08-17T23:40:39.472Z,22.60
2022-08-17T23:43:17.526Z,22.61
2022-08-17T23:45:51.841Z,22.59
2022-08-17T23:48:32.573Z,22.59
2022-08-17T23:51:09.725Z,22.59
2022-08-17T23:53:42.727Z,22.55
2022-08-17T23:56:11.692Z,22.54
2022-08-17T23:58:42.966Z,22.53
